Ocean Tomo — 3FID9 — position and weather

sailwx.info

Track history (hours):
 
Tides and Currents Weather Stations Pressure Air Temp Water Temp Dewpoint Dewpoint Depression Visibility Wind Speed Wind Dir Waves Ship Positions

Ocean Tomo

Last reported at 2017-Jan-18 02:25 UTC. Time now 2017-Jan-23 08:33 UTC.
Position N 33°51' E 134°52'.

Length 190 m; draft 7.3 m.

Type: Ship. MMSI: 372951000.

Date/timePositionNaut miles runAvg speedWind from/ knotsBaromVisibWave heightAir tempDewpointWater temp
2017-Jan-18 02:25N 33°51' E 134°52'1213.4
2017-Jan-18 01:31N 34°03' E 134°55'1211.9
2017-Jan-18 00:33N 34°14' E 134°57'1212.0
2017-Jan-17 23:33N 34°24' E 135°06'1413.7
2017-Jan-17 22:33N 34°32' E 135°19'5 4.6
2017-Jan-17 21:33N 34°31' E 135°25'0 0.0
2017-Jan-17 20:31N 34°31' E 135°25'0 0.0
2017-Jan-17 19:25N 34°31' E 135°25'0 0.0
2017-Jan-17 18:31N 34°31' E 135°25'0 0.0
2017-Jan-17 17:31N 34°31' E 135°25'0 0.0
2017-Jan-17 16:25N 34°31' E 135°25'0 0.0
2017-Jan-17 15:31N 34°31' E 135°25'0 0.0
2017-Jan-17 14:31N 34°31' E 135°25'0 0.0
2017-Jan-17 13:31N 34°31' E 135°25'0 0.0
2017-Jan-17 12:25N 34°31' E 135°25'0 0.0
2017-Jan-17 11:31N 34°31' E 135°25'0 0.0
2017-Jan-17 10:31N 34°31' E 135°25'0 0.0
2017-Jan-17 09:31N 34°31' E 135°25'0 0.0
2017-Jan-17 08:31N 34°31' E 135°25'0 0.0
2017-Jan-17 07:31N 34°31' E 135°25'0 0.0
2017-Jan-17 06:31N 34°31' E 135°25'0 0.0
2017-Jan-17 05:31N 34°31' E 135°25'0 0.0
2017-Jan-17 04:13N 34°31' E 135°25'0 0.0
2017-Jan-17 03:25N 34°31' E 135°25'0 0.0
2017-Jan-17 02:19N 34°31' E 135°25'0 0.0
2017-Jan-17 01:31N 34°31' E 135°25'0 0.0
2017-Jan-17 00:31N 34°31' E 135°25'0 0.0
2017-Jan-16 23:31N 34°31' E 135°25'0 0.1
2017-Jan-16 22:32N 34°31' E 135°25'3 3.0
2017-Jan-16 21:25N 34°32' E 135°21'0 0.1
2017-Jan-16 20:31N 34°32' E 135°21'0 0.0
2017-Jan-16 19:31N 34°32' E 135°21'0 0.0
2017-Jan-16 18:31N 34°32' E 135°21'0 0.0
2017-Jan-16 17:31N 34°32' E 135°21'0 0.0
2017-Jan-16 16:31N 34°32' E 135°21'0 0.0
2017-Jan-16 15:19N 34°32' E 135°21'0 0.0
2017-Jan-16 14:31N 34°32' E 135°21'0 0.0
2017-Jan-16 13:13N 34°32' E 135°21'0 0.0
2017-Jan-16 12:31N 34°32' E 135°21'0 0.0
2017-Jan-16 11:31N 34°32' E 135°21'0 0.0
2017-Jan-16 10:31N 34°32' E 135°21'0 0.0
2017-Jan-16 09:31N 34°32' E 135°21'0 0.0
2017-Jan-16 08:31N 34°32' E 135°21'0 0.2
2017-Jan-16 07:33N 34°32' E 135°21'7 7.3
2017-Jan-16 06:33N 34°39' E 135°25'2 1.8
2017-Jan-16 05:22N 34°40' E 135°27'0 0.0
2017-Jan-16 04:28N 34°40' E 135°27'0 0.0
2017-Jan-16 03:28N 34°40' E 135°27'0 0.0
2017-Jan-16 02:10N 34°40' E 135°27'0 0.0
2017-Jan-16 00:28N 34°40' E 135°27'0 0.0
2017-Jan-15 23:10N 34°40' E 135°27'0 0.0
2017-Jan-15 22:22N 34°40' E 135°27'0 0.0
2017-Jan-15 21:22N 34°40' E 135°27'0 0.0
2017-Jan-15 20:28N 34°40' E 135°27'0 0.0
2017-Jan-15 19:28N 34°40' E 135°27'0 0.0
2017-Jan-15 18:28N 34°40' E 135°27'0 0.0
2017-Jan-15 17:22N 34°40' E 135°27'0 0.0
2017-Jan-15 16:28N 34°40' E 135°27'0 0.0
2017-Jan-15 15:28N 34°40' E 135°27'0 0.0
2017-Jan-15 14:28N 34°40' E 135°27'0 0.0
2017-Jan-15 13:28N 34°40' E 135°27'0 0.0
2017-Jan-15 12:22N 34°40' E 135°27'0 0.0
2017-Jan-15 11:28N 34°40' E 135°27'0 0.0
2017-Jan-15 10:28N 34°40' E 135°27'0 0.0
2017-Jan-15 09:28N 34°40' E 135°27'0 0.0
2017-Jan-15 08:28N 34°40' E 135°27'0 0.0
2017-Jan-15 07:22N 34°40' E 135°27'0 0.0
2017-Jan-15 06:22N 34°40' E 135°27'0 0.0
2017-Jan-15 05:28N 34°40' E 135°27'0 0.0
2017-Jan-15 04:28N 34°40' E 135°27'0 0.0
2017-Jan-15 03:34N 34°40' E 135°27'0 0.0
2017-Jan-15 02:22N 34°40' E 135°27'0 0.1
2017-Jan-15 01:33N 34°40' E 135°27'6 5.9
2017-Jan-15 00:33N 34°37' E 135°21'1 0.8
2017-Jan-14 23:08N 34°37' E 135°19'0 0.0
2017-Jan-14 22:32N 34°37' E 135°19'0 0.0
2017-Jan-14 21:32N 34°37' E 135°19'0 0.0
2017-Jan-14 20:32N 34°37' E 135°19'0 0.0
2017-Jan-14 19:26N 34°37' E 135°19'0 0.0
2017-Jan-14 18:32N 34°37' E 135°19'0 0.0
2017-Jan-14 17:32N 34°37' E 135°19'0 0.0
2017-Jan-14 16:32N 34°37' E 135°19'0 0.1
2017-Jan-14 15:26N 34°37' E 135°19'0 0.1
2017-Jan-14 14:32N 34°37' E 135°19'0 0.0
2017-Jan-14 13:32N 34°37' E 135°19'0 0.0
2017-Jan-14 12:26N 34°37' E 135°19'0 0.1
2017-Jan-14 11:32N 34°37' E 135°19'0 0.0
2017-Jan-14 10:32N 34°37' E 135°19'0 0.0
2017-Jan-14 09:32N 34°37' E 135°19'0 0.0
2017-Jan-14 08:32N 34°37' E 135°19'0 0.0
2017-Jan-14 07:32N 34°37' E 135°19'0 0.0
2017-Jan-14 06:32N 34°37' E 135°19'1 1.4
2017-Jan-14 05:33N 34°38' E 135°19'4 3.9
2017-Jan-14 04:28N 34°42' E 135°17'0 0.0
2017-Jan-14 03:28N 34°42' E 135°17'0 0.0
2017-Jan-13 23:28N 34°42' E 135°17'0 0.0
2017-Jan-13 22:28N 34°42' E 135°17'0 0.0
2017-Jan-13 21:28N 34°42' E 135°17'0 0.0
2017-Jan-13 20:22N 34°42' E 135°17'0 0.0
2017-Jan-13 19:16N 34°42' E 135°17'0 0.0
2017-Jan-13 18:22N 34°42' E 135°17'0 0.0
2017-Jan-13 17:27N 34°42' E 135°17'0 0.0
2017-Jan-13 16:28N 34°42' E 135°17'0 0.0
2017-Jan-13 15:33N 34°42' E 135°17'0 0.0
2017-Jan-13 14:33N 34°42' E 135°17'0 0.0
2017-Jan-13 13:34N 34°42' E 135°17'0 0.0
2017-Jan-13 12:33N 34°42' E 135°17'0 0.0
2017-Jan-13 11:33N 34°42' E 135°17'0 0.0
2017-Jan-13 10:34N 34°42' E 135°17'0 0.0
2017-Jan-13 09:34N 34°42' E 135°17'0 0.0
2017-Jan-13 08:28N 34°42' E 135°17'0 0.0
2017-Jan-13 07:33N 34°42' E 135°17'0 0.0
2017-Jan-13 06:33N 34°42' E 135°17'0 0.0
2017-Jan-13 05:21N 34°42' E 135°17'0 0.0
2017-Jan-13 04:21N 34°42' E 135°17'0 0.0
2017-Jan-13 03:33N 34°42' E 135°17'0 0.0
2017-Jan-13 02:21N 34°42' E 135°17'0 0.0
2017-Jan-13 01:33N 34°42' E 135°17'0 0.0
2017-Jan-13 00:21N 34°42' E 135°17'0 0.0
2017-Jan-12 23:33N 34°42' E 135°17'0 0.0
2017-Jan-12 22:33N 34°42' E 135°17'0 0.0
2017-Jan-12 21:33N 34°42' E 135°17'0 0.0
2017-Jan-12 20:15N 34°42' E 135°17'0 0.0
2017-Jan-12 19:33N 34°42' E 135°17'0 0.0
2017-Jan-12 18:33N 34°42' E 135°17'0 0.0
2017-Jan-12 17:33N 34°42' E 135°17'0 0.0
2017-Jan-12 16:33N 34°42' E 135°17'0 0.0
2017-Jan-12 15:33N 34°42' E 135°17'0 0.0
2017-Jan-12 14:21N 34°42' E 135°17'0 0.0
2017-Jan-12 13:33N 34°42' E 135°17'0 0.0
2017-Jan-12 12:33N 34°42' E 135°17'0 0.0
2017-Jan-12 11:33N 34°42' E 135°17'0 0.0
2017-Jan-12 10:33N 34°42' E 135°17'0 0.0
2017-Jan-12 09:33N 34°42' E 135°17'0 0.0
2017-Jan-12 08:33N 34°42' E 135°17'0 0.0
2017-Jan-12 07:33N 34°42' E 135°17'0 0.0
2017-Jan-12 06:33N 34°42' E 135°17'0 0.0
2017-Jan-12 05:33N 34°42' E 135°17'0 0.0
2017-Jan-12 04:33N 34°42' E 135°17'0 0.0
2017-Jan-12 03:33N 34°42' E 135°17'0 0.0
2017-Jan-12 02:15N 34°42' E 135°17'0 0.0
2017-Jan-12 01:27N 34°42' E 135°17'0 0.0
2017-Jan-12 00:33N 34°42' E 135°17'0 0.0
2017-Jan-11 23:33N 34°42' E 135°17'1 0.8
2017-Jan-11 22:33N 34°42' E 135°18'2 1.6
2017-Jan-11 21:33N 34°42' E 135°16'0 0.0
2017-Jan-11 20:30N 34°42' E 135°16'0 0.0
2017-Jan-11 19:30N 34°42' E 135°16'0 0.0
2017-Jan-11 18:30N 34°42' E 135°16'0 0.0
2017-Jan-11 17:24N 34°42' E 135°16'0 0.0
2017-Jan-11 16:31N 34°42' E 135°16'0 0.0
2017-Jan-11 15:30N 34°42' E 135°16'0 0.0
2017-Jan-11 14:18N 34°42' E 135°16'0 0.0
2017-Jan-11 13:30N 34°42' E 135°16'0 0.0
2017-Jan-11 12:24N 34°42' E 135°16'0 0.0
2017-Jan-11 11:30N 34°42' E 135°16'0 0.0
2017-Jan-11 10:30N 34°42' E 135°16'0 0.0
2017-Jan-11 09:24N 34°42' E 135°16'0 0.0
2017-Jan-11 08:30N 34°42' E 135°16'0 0.0
2017-Jan-11 07:18N 34°42' E 135°16'0 0.0
2017-Jan-11 06:30N 34°42' E 135°16'0 0.0
2017-Jan-11 05:30N 34°42' E 135°16'0 0.0
2017-Jan-11 04:30N 34°42' E 135°16'0 0.0
2017-Jan-11 03:30N 34°42' E 135°16'0 0.0
2017-Jan-11 02:24N 34°42' E 135°16'0 0.0
2017-Jan-11 01:30N 34°42' E 135°16'0 0.0
2017-Jan-11 00:30N 34°42' E 135°16'0 0.0
2017-Jan-10 23:30N 34°42' E 135°16'0 0.0
2017-Jan-10 22:30N 34°42' E 135°16'0 0.1
2017-Jan-10 21:32N 34°42' E 135°16'0 0.0
2017-Jan-10 20:32N 34°42' E 135°16'0 0.0
2017-Jan-10 19:32N 34°42' E 135°16'0 0.0
2017-Jan-10 18:32N 34°42' E 135°16'0 0.0
2017-Jan-10 17:32N 34°42' E 135°16'0 0.0
2017-Jan-10 16:32N 34°42' E 135°16'0 0.0
2017-Jan-10 15:26N 34°42' E 135°16'0 0.0
2017-Jan-10 14:32N 34°42' E 135°16'0 0.0
2017-Jan-10 13:26N 34°42' E 135°16'0 0.0
2017-Jan-10 12:32N 34°42' E 135°16'0 0.0
2017-Jan-10 11:32N 34°42' E 135°16'0 0.0
2017-Jan-10 10:32N 34°42' E 135°16'0 0.0
2017-Jan-10 09:32N 34°42' E 135°16'0 0.0
2017-Jan-10 08:32N 34°42' E 135°16'0 0.0
2017-Jan-10 07:32N 34°42' E 135°16'0 0.0
2017-Jan-10 06:32N 34°42' E 135°16'0 0.0
2017-Jan-10 05:32N 34°42' E 135°16'0 0.0
2017-Jan-10 04:32N 34°42' E 135°16'0 0.0
2017-Jan-10 03:32N 34°42' E 135°16'0 0.0
2017-Jan-10 02:08N 34°42' E 135°16'0 0.0
2017-Jan-10 01:26N 34°42' E 135°16'0 0.0
2017-Jan-10 00:32N 34°42' E 135°16'0 0.0
2017-Jan-09 23:32N 34°42' E 135°16'1 0.6
2017-Jan-09 22:33N 34°42' E 135°15'4 3.7
2017-Jan-09 21:33N 34°38' E 135°17'0 0.0
2017-Jan-09 20:10N 34°38' E 135°17'0 0.0
2017-Jan-09 19:28N 34°38' E 135°17'0 0.0
2017-Jan-09 18:28N 34°38' E 135°17'0 0.0
2017-Jan-09 17:28N 34°38' E 135°17'0 0.0
2017-Jan-09 16:22N 34°38' E 135°17'0 0.0
2017-Jan-09 15:28N 34°38' E 135°17'0 0.0
2017-Jan-09 14:28N 34°38' E 135°17'0 0.0
2017-Jan-09 13:28N 34°38' E 135°17'0 0.1
2017-Jan-09 12:28N 34°38' E 135°17'0 0.1
2017-Jan-09 11:28N 34°38' E 135°17'0 0.0
2017-Jan-09 10:28N 34°38' E 135°17'0 0.1
2017-Jan-09 09:28N 34°38' E 135°17'0 0.1
2017-Jan-09 08:22N 34°38' E 135°17'0 0.0
2017-Jan-09 07:28N 34°38' E 135°17'0 0.0
2017-Jan-09 06:28N 34°38' E 135°17'0 0.0
2017-Jan-09 05:22N 34°38' E 135°17'0 0.0
2017-Jan-09 04:28N 34°38' E 135°17'0 0.0
2017-Jan-09 03:22N 34°38' E 135°17'0 0.0
2017-Jan-09 02:28N 34°38' E 135°17'0 0.0
2017-Jan-09 01:28N 34°38' E 135°17'0 0.1
2017-Jan-09 00:28N 34°38' E 135°17'0 0.0
2017-Jan-08 23:28N 34°38' E 135°17'0 0.0
2017-Jan-08 22:28N 34°38' E 135°17'0 0.1
2017-Jan-08 21:28N 34°38' E 135°17'0 0.0
2017-Jan-08 20:16N 34°38' E 135°17'0 0.0
2017-Jan-08 19:28N 34°38' E 135°17'0 0.1
2017-Jan-08 18:28N 34°38' E 135°17'0 0.0
2017-Jan-08 17:22N 34°38' E 135°17'0 0.0
2017-Jan-08 16:28N 34°38' E 135°17'0 0.0
2017-Jan-08 15:28N 34°38' E 135°17'0 0.0
2017-Jan-08 14:28N 34°38' E 135°17'0 0.1
2017-Jan-08 13:28N 34°38' E 135°17'0 0.0
2017-Jan-08 12:28N 34°38' E 135°17'0 0.1
2017-Jan-08 11:28N 34°38' E 135°17'0 0.0
2017-Jan-08 10:16N 34°38' E 135°17'0 0.1
2017-Jan-08 09:28N 34°38' E 135°17'0 0.0
2017-Jan-08 08:28N 34°38' E 135°17'0 0.0
2017-Jan-08 07:28N 34°38' E 135°17'0 0.0
2017-Jan-08 06:28N 34°38' E 135°17'0 0.0
2017-Jan-08 05:28N 34°38' E 135°17'0 0.0
2017-Jan-08 04:28N 34°38' E 135°17'0 0.0
2017-Jan-08 03:28N 34°38' E 135°17'0 0.0
2017-Jan-08 02:28N 34°38' E 135°17'  
Track history (hours):
 
Tides and Currents Weather Stations Pressure Air Temp Water Temp Dewpoint Dewpoint Depression Visibility Wind Speed Wind Dir Waves Ship Positions

Ocean Tomo

Last reported at 2017-Jan-18 02:25 UTC. Time now 2017-Jan-23 08:33 UTC.
Position N 33°51' E 134°52'.

Length 190 m; draft 7.3 m.

Type: Ship. MMSI: 372951000.

Date/timePositionNaut miles runAvg speedWind from/ knotsBaromVisibWave heightAir tempDewpointWater temp
2017-Jan-18 02:25N 33°51' E 134°52'1213.4
2017-Jan-18 01:31N 34°03' E 134°55'1211.9
2017-Jan-18 00:33N 34°14' E 134°57'1212.0
2017-Jan-17 23:33N 34°24' E 135°06'1413.7
2017-Jan-17 22:33N 34°32' E 135°19'5 4.6
2017-Jan-17 21:33N 34°31' E 135°25'0 0.0
2017-Jan-17 20:31N 34°31' E 135°25'0 0.0
2017-Jan-17 19:25N 34°31' E 135°25'0 0.0
2017-Jan-17 18:31N 34°31' E 135°25'0 0.0
2017-Jan-17 17:31N 34°31' E 135°25'0 0.0
2017-Jan-17 16:25N 34°31' E 135°25'0 0.0
2017-Jan-17 15:31N 34°31' E 135°25'0 0.0
2017-Jan-17 14:31N 34°31' E 135°25'0 0.0
2017-Jan-17 13:31N 34°31' E 135°25'0 0.0
2017-Jan-17 12:25N 34°31' E 135°25'0 0.0
2017-Jan-17 11:31N 34°31' E 135°25'0 0.0
2017-Jan-17 10:31N 34°31' E 135°25'0 0.0
2017-Jan-17 09:31N 34°31' E 135°25'0 0.0
2017-Jan-17 08:31N 34°31' E 135°25'0 0.0
2017-Jan-17 07:31N 34°31' E 135°25'0 0.0
2017-Jan-17 06:31N 34°31' E 135°25'0 0.0
2017-Jan-17 05:31N 34°31' E 135°25'0 0.0
2017-Jan-17 04:13N 34°31' E 135°25'0 0.0
2017-Jan-17 03:25N 34°31' E 135°25'0 0.0
2017-Jan-17 02:19N 34°31' E 135°25'0 0.0
2017-Jan-17 01:31N 34°31' E 135°25'0 0.0
2017-Jan-17 00:31N 34°31' E 135°25'0 0.0
2017-Jan-16 23:31N 34°31' E 135°25'0 0.1
2017-Jan-16 22:32N 34°31' E 135°25'3 3.0
2017-Jan-16 21:25N 34°32' E 135°21'0 0.1
2017-Jan-16 20:31N 34°32' E 135°21'0 0.0
2017-Jan-16 19:31N 34°32' E 135°21'0 0.0
2017-Jan-16 18:31N 34°32' E 135°21'0 0.0
2017-Jan-16 17:31N 34°32' E 135°21'0 0.0
2017-Jan-16 16:31N 34°32' E 135°21'0 0.0
2017-Jan-16 15:19N 34°32' E 135°21'0 0.0
2017-Jan-16 14:31N 34°32' E 135°21'0 0.0
2017-Jan-16 13:13N 34°32' E 135°21'0 0.0
2017-Jan-16 12:31N 34°32' E 135°21'0 0.0
2017-Jan-16 11:31N 34°32' E 135°21'0 0.0
2017-Jan-16 10:31N 34°32' E 135°21'0 0.0
2017-Jan-16 09:31N 34°32' E 135°21'0 0.0
2017-Jan-16 08:31N 34°32' E 135°21'0 0.2
2017-Jan-16 07:33N 34°32' E 135°21'7 7.3
2017-Jan-16 06:33N 34°39' E 135°25'2 1.8
2017-Jan-16 05:22N 34°40' E 135°27'0 0.0
2017-Jan-16 04:28N 34°40' E 135°27'0 0.0
2017-Jan-16 03:28N 34°40' E 135°27'0 0.0
2017-Jan-16 02:10N 34°40' E 135°27'0 0.0
2017-Jan-16 00:28N 34°40' E 135°27'0 0.0
2017-Jan-15 23:10N 34°40' E 135°27'0 0.0
2017-Jan-15 22:22N 34°40' E 135°27'0 0.0
2017-Jan-15 21:22N 34°40' E 135°27'0 0.0
2017-Jan-15 20:28N 34°40' E 135°27'0 0.0
2017-Jan-15 19:28N 34°40' E 135°27'0 0.0
2017-Jan-15 18:28N 34°40' E 135°27'0 0.0
2017-Jan-15 17:22N 34°40' E 135°27'0 0.0
2017-Jan-15 16:28N 34°40' E 135°27'0 0.0
2017-Jan-15 15:28N 34°40' E 135°27'0 0.0
2017-Jan-15 14:28N 34°40' E 135°27'0 0.0
2017-Jan-15 13:28N 34°40' E 135°27'0 0.0
2017-Jan-15 12:22N 34°40' E 135°27'0 0.0
2017-Jan-15 11:28N 34°40' E 135°27'0 0.0
2017-Jan-15 10:28N 34°40' E 135°27'0 0.0
2017-Jan-15 09:28N 34°40' E 135°27'0 0.0
2017-Jan-15 08:28N 34°40' E 135°27'0 0.0
2017-Jan-15 07:22N 34°40' E 135°27'0 0.0
2017-Jan-15 06:22N 34°40' E 135°27'0 0.0
2017-Jan-15 05:28N 34°40' E 135°27'0 0.0
2017-Jan-15 04:28N 34°40' E 135°27'0 0.0
2017-Jan-15 03:34N 34°40' E 135°27'0 0.0
2017-Jan-15 02:22N 34°40' E 135°27'0 0.1
2017-Jan-15 01:33N 34°40' E 135°27'6 5.9
2017-Jan-15 00:33N 34°37' E 135°21'1 0.8
2017-Jan-14 23:08N 34°37' E 135°19'0 0.0
2017-Jan-14 22:32N 34°37' E 135°19'0 0.0
2017-Jan-14 21:32N 34°37' E 135°19'0 0.0
2017-Jan-14 20:32N 34°37' E 135°19'0 0.0
2017-Jan-14 19:26N 34°37' E 135°19'0 0.0
2017-Jan-14 18:32N 34°37' E 135°19'0 0.0
2017-Jan-14 17:32N 34°37' E 135°19'0 0.0
2017-Jan-14 16:32N 34°37' E 135°19'0 0.1
2017-Jan-14 15:26N 34°37' E 135°19'0 0.1
2017-Jan-14 14:32N 34°37' E 135°19'0 0.0
2017-Jan-14 13:32N 34°37' E 135°19'0 0.0
2017-Jan-14 12:26N 34°37' E 135°19'0 0.1
2017-Jan-14 11:32N 34°37' E 135°19'0 0.0
2017-Jan-14 10:32N 34°37' E 135°19'0 0.0
2017-Jan-14 09:32N 34°37' E 135°19'0 0.0
2017-Jan-14 08:32N 34°37' E 135°19'0 0.0
2017-Jan-14 07:32N 34°37' E 135°19'0 0.0
2017-Jan-14 06:32N 34°37' E 135°19'1 1.4
2017-Jan-14 05:33N 34°38' E 135°19'4 3.9
2017-Jan-14 04:28N 34°42' E 135°17'0 0.0
2017-Jan-14 03:28N 34°42' E 135°17'0 0.0
2017-Jan-13 23:28N 34°42' E 135°17'0 0.0
2017-Jan-13 22:28N 34°42' E 135°17'0 0.0
2017-Jan-13 21:28N 34°42' E 135°17'0 0.0
2017-Jan-13 20:22N 34°42' E 135°17'0 0.0
2017-Jan-13 19:16N 34°42' E 135°17'0 0.0
2017-Jan-13 18:22N 34°42' E 135°17'0 0.0
2017-Jan-13 17:27N 34°42' E 135°17'0 0.0
2017-Jan-13 16:28N 34°42' E 135°17'0 0.0
2017-Jan-13 15:33N 34°42' E 135°17'0 0.0
2017-Jan-13 14:33N 34°42' E 135°17'0 0.0
2017-Jan-13 13:34N 34°42' E 135°17'0 0.0
2017-Jan-13 12:33N 34°42' E 135°17'0 0.0
2017-Jan-13 11:33N 34°42' E 135°17'0 0.0
2017-Jan-13 10:34N 34°42' E 135°17'0 0.0
2017-Jan-13 09:34N 34°42' E 135°17'0 0.0
2017-Jan-13 08:28N 34°42' E 135°17'0 0.0
2017-Jan-13 07:33N 34°42' E 135°17'0 0.0
2017-Jan-13 06:33N 34°42' E 135°17'0 0.0
2017-Jan-13 05:21N 34°42' E 135°17'0 0.0
2017-Jan-13 04:21N 34°42' E 135°17'0 0.0
2017-Jan-13 03:33N 34°42' E 135°17'0 0.0
2017-Jan-13 02:21N 34°42' E 135°17'0 0.0
2017-Jan-13 01:33N 34°42' E 135°17'0 0.0
2017-Jan-13 00:21N 34°42' E 135°17'0 0.0
2017-Jan-12 23:33N 34°42' E 135°17'0 0.0
2017-Jan-12 22:33N 34°42' E 135°17'0 0.0
2017-Jan-12 21:33N 34°42' E 135°17'0 0.0
2017-Jan-12 20:15N 34°42' E 135°17'0 0.0
2017-Jan-12 19:33N 34°42' E 135°17'0 0.0
2017-Jan-12 18:33N 34°42' E 135°17'0 0.0
2017-Jan-12 17:33N 34°42' E 135°17'0 0.0
2017-Jan-12 16:33N 34°42' E 135°17'0 0.0
2017-Jan-12 15:33N 34°42' E 135°17'0 0.0
2017-Jan-12 14:21N 34°42' E 135°17'0 0.0
2017-Jan-12 13:33N 34°42' E 135°17'0 0.0
2017-Jan-12 12:33N 34°42' E 135°17'0 0.0
2017-Jan-12 11:33N 34°42' E 135°17'0 0.0
2017-Jan-12 10:33N 34°42' E 135°17'0 0.0
2017-Jan-12 09:33N 34°42' E 135°17'0 0.0
2017-Jan-12 08:33N 34°42' E 135°17'0 0.0
2017-Jan-12 07:33N 34°42' E 135°17'0 0.0
2017-Jan-12 06:33N 34°42' E 135°17'0 0.0
2017-Jan-12 05:33N 34°42' E 135°17'0 0.0
2017-Jan-12 04:33N 34°42' E 135°17'0 0.0
2017-Jan-12 03:33N 34°42' E 135°17'0 0.0
2017-Jan-12 02:15N 34°42' E 135°17'0 0.0
2017-Jan-12 01:27N 34°42' E 135°17'0 0.0
2017-Jan-12 00:33N 34°42' E 135°17'0 0.0
2017-Jan-11 23:33N 34°42' E 135°17'1 0.8
2017-Jan-11 22:33N 34°42' E 135°18'2 1.6
2017-Jan-11 21:33N 34°42' E 135°16'0 0.0
2017-Jan-11 20:30N 34°42' E 135°16'0 0.0
2017-Jan-11 19:30N 34°42' E 135°16'0 0.0
2017-Jan-11 18:30N 34°42' E 135°16'0 0.0
2017-Jan-11 17:24N 34°42' E 135°16'0 0.0
2017-Jan-11 16:31N 34°42' E 135°16'0 0.0
2017-Jan-11 15:30N 34°42' E 135°16'0 0.0
2017-Jan-11 14:18N 34°42' E 135°16'0 0.0
2017-Jan-11 13:30N 34°42' E 135°16'0 0.0
2017-Jan-11 12:24N 34°42' E 135°16'0 0.0
2017-Jan-11 11:30N 34°42' E 135°16'0 0.0
2017-Jan-11 10:30N 34°42' E 135°16'0 0.0
2017-Jan-11 09:24N 34°42' E 135°16'0 0.0
2017-Jan-11 08:30N 34°42' E 135°16'0 0.0
2017-Jan-11 07:18N 34°42' E 135°16'0 0.0
2017-Jan-11 06:30N 34°42' E 135°16'0 0.0
2017-Jan-11 05:30N 34°42' E 135°16'0 0.0
2017-Jan-11 04:30N 34°42' E 135°16'0 0.0
2017-Jan-11 03:30N 34°42' E 135°16'0 0.0
2017-Jan-11 02:24N 34°42' E 135°16'0 0.0
2017-Jan-11 01:30N 34°42' E 135°16'0 0.0
2017-Jan-11 00:30N 34°42' E 135°16'0 0.0
2017-Jan-10 23:30N 34°42' E 135°16'0 0.0
2017-Jan-10 22:30N 34°42' E 135°16'0 0.1
2017-Jan-10 21:32N 34°42' E 135°16'0 0.0
2017-Jan-10 20:32N 34°42' E 135°16'0 0.0
2017-Jan-10 19:32N 34°42' E 135°16'0 0.0
2017-Jan-10 18:32N 34°42' E 135°16'0 0.0
2017-Jan-10 17:32N 34°42' E 135°16'0 0.0
2017-Jan-10 16:32N 34°42' E 135°16'0 0.0
2017-Jan-10 15:26N 34°42' E 135°16'0 0.0
2017-Jan-10 14:32N 34°42' E 135°16'0 0.0
2017-Jan-10 13:26N 34°42' E 135°16'0 0.0
2017-Jan-10 12:32N 34°42' E 135°16'0 0.0
2017-Jan-10 11:32N 34°42' E 135°16'0 0.0
2017-Jan-10 10:32N 34°42' E 135°16'0 0.0
2017-Jan-10 09:32N 34°42' E 135°16'0 0.0
2017-Jan-10 08:32N 34°42' E 135°16'0 0.0
2017-Jan-10 07:32N 34°42' E 135°16'0 0.0
2017-Jan-10 06:32N 34°42' E 135°16'0 0.0
2017-Jan-10 05:32N 34°42' E 135°16'0 0.0
2017-Jan-10 04:32N 34°42' E 135°16'0 0.0
2017-Jan-10 03:32N 34°42' E 135°16'0 0.0
2017-Jan-10 02:08N 34°42' E 135°16'0 0.0
2017-Jan-10 01:26N 34°42' E 135°16'0 0.0
2017-Jan-10 00:32N 34°42' E 135°16'0 0.0
2017-Jan-09 23:32N 34°42' E 135°16'1 0.6
2017-Jan-09 22:33N 34°42' E 135°15'4 3.7
2017-Jan-09 21:33N 34°38' E 135°17'0 0.0
2017-Jan-09 20:10N 34°38' E 135°17'0 0.0
2017-Jan-09 19:28N 34°38' E 135°17'0 0.0
2017-Jan-09 18:28N 34°38' E 135°17'0 0.0
2017-Jan-09 17:28N 34°38' E 135°17'0 0.0
2017-Jan-09 16:22N 34°38' E 135°17'0 0.0
2017-Jan-09 15:28N 34°38' E 135°17'0 0.0
2017-Jan-09 14:28N 34°38' E 135°17'0 0.0
2017-Jan-09 13:28N 34°38' E 135°17'0 0.1
2017-Jan-09 12:28N 34°38' E 135°17'0 0.1
2017-Jan-09 11:28N 34°38' E 135°17'0 0.0
2017-Jan-09 10:28N 34°38' E 135°17'0 0.1
2017-Jan-09 09:28N 34°38' E 135°17'0 0.1
2017-Jan-09 08:22N 34°38' E 135°17'0 0.0
2017-Jan-09 07:28N 34°38' E 135°17'0 0.0
2017-Jan-09 06:28N 34°38' E 135°17'0 0.0
2017-Jan-09 05:22N 34°38' E 135°17'0 0.0
2017-Jan-09 04:28N 34°38' E 135°17'0 0.0
2017-Jan-09 03:22N 34°38' E 135°17'0 0.0
2017-Jan-09 02:28N 34°38' E 135°17'0 0.0
2017-Jan-09 01:28N 34°38' E 135°17'0 0.1
2017-Jan-09 00:28N 34°38' E 135°17'0 0.0
2017-Jan-08 23:28N 34°38' E 135°17'0 0.0
2017-Jan-08 22:28N 34°38' E 135°17'0 0.1
2017-Jan-08 21:28N 34°38' E 135°17'0 0.0
2017-Jan-08 20:16N 34°38' E 135°17'0 0.0
2017-Jan-08 19:28N 34°38' E 135°17'0 0.1
2017-Jan-08 18:28N 34°38' E 135°17'0 0.0
2017-Jan-08 17:22N 34°38' E 135°17'0 0.0
2017-Jan-08 16:28N 34°38' E 135°17'0 0.0
2017-Jan-08 15:28N 34°38' E 135°17'0 0.0
2017-Jan-08 14:28N 34°38' E 135°17'0 0.1
2017-Jan-08 13:28N 34°38' E 135°17'0 0.0
2017-Jan-08 12:28N 34°38' E 135°17'0 0.1
2017-Jan-08 11:28N 34°38' E 135°17'0 0.0
2017-Jan-08 10:16N 34°38' E 135°17'0 0.1
2017-Jan-08 09:28N 34°38' E 135°17'0 0.0
2017-Jan-08 08:28N 34°38' E 135°17'0 0.0
2017-Jan-08 07:28N 34°38' E 135°17'0 0.0
2017-Jan-08 06:28N 34°38' E 135°17'0 0.0
2017-Jan-08 05:28N 34°38' E 135°17'0 0.0
2017-Jan-08 04:28N 34°38' E 135°17'0 0.0
2017-Jan-08 03:28N 34°38' E 135°17'0 0.0
2017-Jan-08 02:28N 34°38' E 135°17'  

Dump ship's entire track history